Lkheng, Morocco

8:04 PM WEST on August 30, 2016 (GMT +0100)
Moulay Ali Cherif | | Change Station

Elev 3425 ft 31.93 °N, 4.40 °W | Updated 4 minutes ago

Partly Cloudy
Partly Cloudy
90 °F
Feels Like 90 °F
N
15
Wind Variable Wind from East

Today
High -- | Low -- °F
--% Chance of Precip.
Yesterday
High -- | Low -- °F
Precip. -- in
Pressure 30.18 in
Visibility 6.2 miles
Clouds Mostly Cloudy 3000 ft
Few 4000 ft
Dew Point 41 °F
Humidity 18%
Rainfall 0.00 in
Snow Depth Not available.
6:51 AM 7:43 PM
Waning Crescent, 3% visible
METAR GMFK 301900Z 08013KT 9999 BKN030 FEW040CB 32/05 Q1022 NOSIG
Pressure 30.18 in
Visibility 6.2 miles
Clouds Mostly Cloudy 3000 ft
Few 4000 ft
Dew Point 41 °F
Humidity 18%
Rainfall 0.00 in
Snow Depth Not available.
6:51 AM 7:43 PM
Waning Crescent, 3% visible
METAR GMFK 301900Z 08013KT 9999 BKN030 FEW040CB 32/05 Q1022 NOSIG

10-Day Weather Forecast

No radar image for this location.
×

Almanac

Astronomy

Aug. 30, 2016 Rise Set
Actual Time
Civil Twilight
Nautical Twilight
Astronomical Twilight
Moon
Length of Visible Light
Length of Day
Tomorrow will be .
, % of the Moon is Illuminated

Today's Extremes

Country Highs Country Lows

Community

WunderPhotos

Upload Photos

1,935,879 photos uploaded!

WunderBlog® & News

Nearby

Air Quality

  Air Quality AQ Index Pollutant
Not available.

Snow Depth

Station Depth Elevation

Earthquake Activity

City Distance Mag. Time & Date
Minimum magnitude displayed is 2.5.

Coastal Water Temperatures

Place Temperature

Stations

Nearby Weather Stations

Station Location Temp. Windchill Dew Point Humidity Wind Precip. Elev Updated Type